createdAt,value
2023-01-19T00:02:02.332Z,1.40
2023-01-19T00:05:06.270Z,1.70
2023-01-19T00:08:15.146Z,1.60
2023-01-19T00:11:18.953Z,1.65
2023-01-19T00:14:21.734Z,1.50
2023-01-19T00:17:24.627Z,1.60
2023-01-19T00:20:27.312Z,1.40
2023-01-19T00:23:30.028Z,1.50
2023-01-19T00:26:32.636Z,2.00
2023-01-19T00:29:35.440Z,1.53
2023-01-19T00:32:38.134Z,1.50
2023-01-19T00:35:42.750Z,1.45
2023-01-19T00:38:45.790Z,1.60
2023-01-19T00:42:07.048Z,1.67
2023-01-19T00:45:11.992Z,1.60
2023-01-19T00:48:14.694Z,1.38
2023-01-19T00:51:17.318Z,1.50
2023-01-19T00:54:19.959Z,1.40
2023-01-19T00:57:22.683Z,1.40
2023-01-19T01:00:25.915Z,1.23
2023-01-19T01:03:28.900Z,1.45
2023-01-19T01:06:32.941Z,1.70
2023-01-19T01:09:35.668Z,1.30
2023-01-19T01:12:39.520Z,1.42
2023-01-19T01:15:42.119Z,1.40
2023-01-19T01:18:44.788Z,1.25
2023-01-19T01:21:47.632Z,1.30
2023-01-19T01:24:50.290Z,1.30
2023-01-19T01:27:53.310Z,1.48
2023-01-19T01:30:57.816Z,1.13
2023-01-19T01:34:00.416Z,1.25
2023-01-19T01:37:03.157Z,1.30
2023-01-19T01:40:07.012Z,1.35
2023-01-19T01:43:14.285Z,1.38
2023-01-19T01:46:18.069Z,1.20
2023-01-19T01:49:20.886Z,1.40
2023-01-19T01:52:27.006Z,1.40
2023-01-19T01:55:31.459Z,1.38
2023-01-19T01:58:34.385Z,1.20
2023-01-19T02:01:55.988Z,1.10
2023-01-19T02:05:04.233Z,1.25
2023-01-19T02:08:48.243Z,1.30
2023-01-19T02:12:09.882Z,1.20
2023-01-19T02:15:18.757Z,1.30
2023-01-19T02:18:23.704Z,1.13
2023-01-19T02:21:39.799Z,1.20
2023-01-19T02:24:43.390Z,1.30
2023-01-19T02:27:46.444Z,1.10
2023-01-19T02:30:49.164Z,1.10
2023-01-19T02:33:52.874Z,1.23
2023-01-19T02:36:58.491Z,0.90
2023-01-19T02:40:03.302Z,1.00
2023-01-19T02:43:08.901Z,1.08
2023-01-19T02:46:11.764Z,1.25
2023-01-19T02:49:15.035Z,1.20
2023-01-19T02:52:18.243Z,1.02
2023-01-19T02:55:28.422Z,1.27
2023-01-19T02:58:46.509Z,1.10
2023-01-19T03:02:09.017Z,1.10
2023-01-19T03:05:31.439Z,1.23
2023-01-19T03:08:45.907Z,1.20
2023-01-19T03:12:00.060Z,1.25
2023-01-19T03:15:11.491Z,1.08
2023-01-19T03:18:17.292Z,1.00
2023-01-19T03:21:23.675Z,1.10
2023-01-19T03:24:31.770Z,1.17
2023-01-19T03:27:40.969Z,1.15
2023-01-19T03:30:47.927Z,1.17
2023-01-19T03:33:54.965Z,1.10
2023-01-19T03:37:03.254Z,1.20
2023-01-19T03:40:06.678Z,1.13
2023-01-19T03:43:10.592Z,1.50
2023-01-19T03:46:17.416Z,1.35
2023-01-19T03:49:20.291Z,1.25
2023-01-19T03:52:30.441Z,1.10
2023-01-19T03:55:35.623Z,1.48
2023-01-19T03:58:38.375Z,1.33
2023-01-19T04:01:41.495Z,1.23
2023-01-19T04:04:44.131Z,1.30
2023-01-19T04:07:49.613Z,1.33
2023-01-19T04:10:52.298Z,1.35
2023-01-19T04:13:54.994Z,1.52
2023-01-19T04:16:57.674Z,1.30
2023-01-19T04:20:03.075Z,1.58
2023-01-19T04:23:05.953Z,1.20
2023-01-19T04:26:08.919Z,1.23
2023-01-19T04:29:11.589Z,1.30
2023-01-19T04:32:14.965Z,1.30
2023-01-19T04:35:17.789Z,1.52
2023-01-19T04:38:21.122Z,1.40
2023-01-19T04:41:23.774Z,1.48
2023-01-19T04:44:27.387Z,1.60
2023-01-19T04:47:30.086Z,1.27
2023-01-19T04:50:33.299Z,1.48
2023-01-19T04:53:35.929Z,1.27
2023-01-19T04:56:40.020Z,1.50
2023-01-19T04:59:42.635Z,1.30
2023-01-19T05:02:45.457Z,1.48
2023-01-19T05:05:48.157Z,1.58
2023-01-19T05:08:51.072Z,1.40
2023-01-19T05:11:53.700Z,1.42
2023-01-19T05:14:56.268Z,1.48
2023-01-19T05:17:59.027Z,1.40
2023-01-19T05:21:03.224Z,1.80
2023-01-19T05:24:06.220Z,1.50
2023-01-19T05:27:09.187Z,1.40
2023-01-19T05:30:13.412Z,1.40
2023-01-19T05:33:17.638Z,1.83
2023-01-19T05:36:20.247Z,1.60
2023-01-19T05:39:25.197Z,1.40
2023-01-19T05:42:28.440Z,1.50
2023-01-19T05:45:31.048Z,1.40
2023-01-19T05:48:33.952Z,1.30
2023-01-19T05:51:38.650Z,1.58
2023-01-19T05:54:41.357Z,1.60
2023-01-19T05:57:44.022Z,1.67
2023-01-19T06:00:46.973Z,1.70
2023-01-19T06:03:49.686Z,1.38
2023-01-19T06:06:52.286Z,1.42
2023-01-19T06:09:54.870Z,1.40
2023-01-19T06:12:57.620Z,1.50
2023-01-19T06:16:01.552Z,1.40
2023-01-19T06:19:04.504Z,1.60
2023-01-19T06:22:07.554Z,1.50
2023-01-19T06:25:10.472Z,1.40
2023-01-19T06:28:13.418Z,1.67
2023-01-19T06:31:16.399Z,1.40
2023-01-19T06:34:22.420Z,1.73
2023-01-19T06:37:27.389Z,1.70
2023-01-19T06:40:30.649Z,1.90
2023-01-19T06:43:33.421Z,1.90
2023-01-19T06:46:36.905Z,2.60
2023-01-19T06:49:40.568Z,2.70
2023-01-19T06:52:43.469Z,2.67
2023-01-19T06:55:46.445Z,2.20
2023-01-19T06:58:50.636Z,1.90
2023-01-19T07:01:53.794Z,1.80
2023-01-19T07:04:57.070Z,1.80
2023-01-19T07:07:59.678Z,1.70
2023-01-19T07:11:25.674Z,2.00
2023-01-19T07:14:33.761Z,1.80
2023-01-19T07:17:36.389Z,1.80
2023-01-19T07:20:39.396Z,2.15
2023-01-19T07:23:43.598Z,1.60
2023-01-19T07:26:46.206Z,2.00
2023-01-19T07:29:48.829Z,2.03
2023-01-19T07:32:51.564Z,2.05
2023-01-19T07:35:57.162Z,2.00
2023-01-19T07:38:59.812Z,1.90
2023-01-19T07:42:02.740Z,2.20
2023-01-19T07:45:08.017Z,2.10
2023-01-19T07:48:10.785Z,2.22
2023-01-19T07:51:18.983Z,2.00
2023-01-19T07:54:22.596Z,2.30
2023-01-19T07:57:25.220Z,2.20
2023-01-19T08:00:28.625Z,2.33
2023-01-19T08:03:31.416Z,2.17
2023-01-19T08:06:37.512Z,2.17
2023-01-19T08:09:40.636Z,2.80
2023-01-19T08:12:43.983Z,2.03
2023-01-19T08:15:54.229Z,1.77
2023-01-19T08:18:57.111Z,2.00
2023-01-19T08:22:01.610Z,2.17
2023-01-19T08:25:04.480Z,2.58
2023-01-19T08:28:08.108Z,1.97
2023-01-19T08:31:19.719Z,2.40
2023-01-19T08:34:24.585Z,2.10
2023-01-19T08:37:27.607Z,1.95
2023-01-19T08:40:33.950Z,2.05
2023-01-19T08:43:38.687Z,1.90
2023-01-19T08:46:41.411Z,1.90
2023-01-19T08:49:45.179Z,1.77
2023-01-19T08:52:50.242Z,1.80
2023-01-19T08:56:01.462Z,2.22
2023-01-19T08:59:09.948Z,1.73
2023-01-19T09:02:16.259Z,1.95
2023-01-19T09:05:21.831Z,2.00
2023-01-19T09:08:24.700Z,2.22
2023-01-19T09:11:28.222Z,1.83
2023-01-19T09:14:32.682Z,1.97
2023-01-19T09:17:37.567Z,2.13
2023-01-19T09:20:42.853Z,2.20
2023-01-19T09:23:45.900Z,2.20
2023-01-19T09:26:49.090Z,1.90
2023-01-19T09:29:54.864Z,1.57
2023-01-19T09:33:04.754Z,2.60
2023-01-19T09:36:08.485Z,1.88
2023-01-19T09:39:12.937Z,2.00
2023-01-19T09:42:18.822Z,1.77
2023-01-19T09:45:52.113Z,2.10
2023-01-19T09:48:58.305Z,1.95
2023-01-19T09:52:01.063Z,2.08
2023-01-19T09:55:08.197Z,1.75
2023-01-19T09:58:19.168Z,1.98
2023-01-19T10:01:53.424Z,2.13
2023-01-19T10:05:00.918Z,2.80
2023-01-19T10:08:42.278Z,2.15
2023-01-19T10:12:12.935Z,1.83
2023-01-19T10:15:31.345Z,2.30
2023-01-19T10:18:51.980Z,1.90
2023-01-19T10:21:58.888Z,2.13
2023-01-19T10:25:07.650Z,2.20
2023-01-19T10:28:13.750Z,2.05
2023-01-19T10:31:21.874Z,2.20
2023-01-19T10:34:27.854Z,2.03
2023-01-19T10:37:43.021Z,1.92
2023-01-19T10:40:55.424Z,1.98
2023-01-19T10:44:03.400Z,2.13
2023-01-19T10:47:12.566Z,1.50
2023-01-19T10:50:37.367Z,2.10
2023-01-19T10:53:43.156Z,1.80
2023-01-19T10:56:53.067Z,1.80
2023-01-19T10:59:56.148Z,2.10
2023-01-19T11:02:59.804Z,1.98
2023-01-19T11:06:31.819Z,1.97
2023-01-19T11:09:34.546Z,1.92
2023-01-19T11:12:41.919Z,1.90
2023-01-19T11:15:57.661Z,2.08
2023-01-19T11:19:02.186Z,1.98
2023-01-19T11:22:27.476Z,1.80
2023-01-19T11:25:34.922Z,2.00
2023-01-19T11:28:44.914Z,2.03
2023-01-19T11:31:48.853Z,1.55
2023-01-19T11:34:56.048Z,2.22
2023-01-19T11:42:15.466Z,1.67
2023-01-19T11:45:20.260Z,2.38
2023-01-19T11:48:46.835Z,2.13
2023-01-19T11:52:03.482Z,2.00
2023-01-19T11:55:12.689Z,2.13
2023-01-19T11:58:18.251Z,2.40
2023-01-19T12:01:28.123Z,2.00
2023-01-19T12:04:36.617Z,1.92
2023-01-19T12:07:39.806Z,2.05
2023-01-19T12:10:47.348Z,2.57
2023-01-19T12:13:55.096Z,2.00
2023-01-19T12:17:02.841Z,2.28
2023-01-19T12:20:31.312Z,2.03
2023-01-19T12:24:05.205Z,2.42
2023-01-19T12:27:20.805Z,2.07
2023-01-19T12:30:26.607Z,1.80
2023-01-19T12:33:38.744Z,2.05
2023-01-19T12:36:42.490Z,2.13
2023-01-19T12:39:49.954Z,1.85
2023-01-19T12:43:00.504Z,1.87
2023-01-19T12:46:19.617Z,1.70
2023-01-19T12:49:43.927Z,3.45
2023-01-19T12:52:59.519Z,4.10
2023-01-19T12:56:09.380Z,4.00
2023-01-19T12:59:26.505Z,3.20
2023-01-19T13:02:53.491Z,2.97
2023-01-19T13:05:57.154Z,3.40
2023-01-19T13:09:03.129Z,2.90
2023-01-19T13:12:15.233Z,3.30
2023-01-19T13:15:35.838Z,3.13
2023-01-19T13:18:42.654Z,3.03
2023-01-19T13:21:47.713Z,3.13
2023-01-19T13:25:10.463Z,3.17
2023-01-19T13:28:16.216Z,3.08
2023-01-19T13:31:21.034Z,3.23
2023-01-19T13:34:26.315Z,2.75
2023-01-19T13:37:39.620Z,3.03
2023-01-19T13:40:44.430Z,3.03
2023-01-19T13:43:48.952Z,2.83
2023-01-19T13:46:53.256Z,2.90
2023-01-19T13:49:57.414Z,2.90
2023-01-19T13:53:01.540Z,3.30
2023-01-19T13:56:20.866Z,3.03
2023-01-19T13:59:23.898Z,3.03
2023-01-19T14:02:26.882Z,2.70
2023-01-19T14:05:35.901Z,2.90
2023-01-19T14:08:38.831Z,2.90
2023-01-19T14:11:41.535Z,2.95
2023-01-19T14:14:49.798Z,2.83
2023-01-19T14:18:27.466Z,2.77
2023-01-19T14:21:41.149Z,2.75
2023-01-19T14:24:43.870Z,3.10
2023-01-19T14:27:46.590Z,3.13
2023-01-19T14:31:00.439Z,2.63
2023-01-19T14:34:03.763Z,3.20
2023-01-19T14:37:22.412Z,3.40
2023-01-19T14:40:25.219Z,3.10
2023-01-19T14:43:29.869Z,2.45
2023-01-19T14:46:32.531Z,3.38
2023-01-19T14:49:41.966Z,3.57
2023-01-19T14:52:50.382Z,3.60
2023-01-19T14:55:56.950Z,3.70
2023-01-19T14:59:02.076Z,3.53
2023-01-19T15:02:05.287Z,3.50
2023-01-19T15:05:08.933Z,3.50
2023-01-19T15:08:16.290Z,3.30
2023-01-19T15:11:31.396Z,3.25
2023-01-19T15:14:34.136Z,3.17
2023-01-19T15:17:36.738Z,3.08
2023-01-19T15:20:40.427Z,3.03
2023-01-19T15:23:43.099Z,2.88
2023-01-19T15:26:45.831Z,2.83
2023-01-19T15:29:48.827Z,2.92
2023-01-19T15:32:51.897Z,2.85
2023-01-19T15:35:54.929Z,3.20
2023-01-19T15:38:58.202Z,4.55
2023-01-19T15:42:01.136Z,3.45
2023-01-19T15:45:24.188Z,2.88
2023-01-19T15:48:26.841Z,2.90
2023-01-19T15:51:29.516Z,3.20
2023-01-19T15:54:32.084Z,2.90
2023-01-19T15:57:35.212Z,3.15
2023-01-19T16:00:37.991Z,3.20
2023-01-19T16:03:40.791Z,3.17
2023-01-19T16:06:43.623Z,3.10
2023-01-19T16:09:46.273Z,2.72
2023-01-19T16:12:49.126Z,3.00
2023-01-19T16:15:51.746Z,3.08
2023-01-19T16:18:54.467Z,5.05
2023-01-19T16:21:57.552Z,4.73
2023-01-19T16:25:00.664Z,5.10
2023-01-19T16:28:03.410Z,5.50
2023-01-19T16:31:06.265Z,3.80
2023-01-19T16:34:10.053Z,4.32
2023-01-19T16:37:12.896Z,3.63
2023-01-19T16:40:16.102Z,3.70
2023-01-19T16:43:18.990Z,4.03
2023-01-19T16:46:24.922Z,3.90
2023-01-19T16:49:28.952Z,4.07
2023-01-19T16:52:31.939Z,3.43
2023-01-19T16:55:34.881Z,3.40
2023-01-19T16:58:40.815Z,3.50
2023-01-19T17:01:45.594Z,4.03
2023-01-19T17:04:49.325Z,3.40
2023-01-19T17:07:53.048Z,3.47
2023-01-19T17:10:56.779Z,3.22
2023-01-19T17:14:09.207Z,3.60
2023-01-19T17:17:12.638Z,3.60
2023-01-19T17:20:17.686Z,3.65
2023-01-19T17:23:22.591Z,4.17
2023-01-19T17:26:31.049Z,3.00
2023-01-19T17:29:35.070Z,3.30
2023-01-19T17:32:38.905Z,3.00
2023-01-19T17:35:42.543Z,3.55
2023-01-19T17:38:47.433Z,3.10
2023-01-19T17:41:53.303Z,3.67
2023-01-19T17:44:57.791Z,3.47
2023-01-19T17:48:01.453Z,3.00
2023-01-19T17:51:07.627Z,3.00
2023-01-19T17:54:11.884Z,3.10
2023-01-19T17:57:16.129Z,2.97
2023-01-19T18:00:20.545Z,2.92
2023-01-19T18:03:26.924Z,2.90
2023-01-19T18:06:31.055Z,3.65
2023-01-19T18:09:35.682Z,3.90
2023-01-19T18:12:40.577Z,3.38
2023-01-19T18:15:44.279Z,3.10
2023-01-19T18:18:50.217Z,2.80
2023-01-19T18:21:54.358Z,3.78
2023-01-19T18:24:59.843Z,2.90
2023-01-19T18:28:06.924Z,3.28
2023-01-19T18:31:16.549Z,2.65
2023-01-19T18:34:21.439Z,3.13
2023-01-19T18:37:25.587Z,3.10
2023-01-19T18:40:29.816Z,2.70
2023-01-19T18:43:34.698Z,2.78
2023-01-19T18:46:40.414Z,2.83
2023-01-19T18:49:45.999Z,3.33
2023-01-19T18:52:52.937Z,3.05
2023-01-19T18:56:00.050Z,2.50
2023-01-19T18:59:04.300Z,3.20
2023-01-19T19:02:10.025Z,3.00
2023-01-19T19:05:16.108Z,3.13
2023-01-19T19:08:20.595Z,2.70
2023-01-19T19:11:27.036Z,2.73
2023-01-19T19:14:31.034Z,2.83
2023-01-19T19:17:38.623Z,3.10
2023-01-19T19:20:43.956Z,2.50
2023-01-19T19:23:56.753Z,2.83
2023-01-19T19:27:01.615Z,3.10
2023-01-19T19:30:06.180Z,3.05
2023-01-19T19:33:10.591Z,3.10
2023-01-19T19:36:16.666Z,3.13
2023-01-19T19:39:23.243Z,2.55
2023-01-19T19:42:30.663Z,2.70
2023-01-19T19:45:36.130Z,3.00
2023-01-19T19:48:42.296Z,3.13
2023-01-19T19:51:47.008Z,2.92
2023-01-19T19:54:53.489Z,3.17
2023-01-19T19:57:59.090Z,2.60
2023-01-19T20:01:16.820Z,2.60
2023-01-19T20:04:25.869Z,2.65
2023-01-19T20:07:29.875Z,3.10
2023-01-19T20:10:38.116Z,2.83
2023-01-19T20:13:44.248Z,2.80
2023-01-19T20:16:50.040Z,2.70
2023-01-19T20:19:54.609Z,3.05
2023-01-19T20:23:01.082Z,2.50
2023-01-19T20:26:08.340Z,3.00
2023-01-19T20:29:14.143Z,3.07
2023-01-19T20:32:18.730Z,3.00
2023-01-19T20:35:22.374Z,2.97
2023-01-19T20:38:27.896Z,2.70
2023-01-19T20:41:33.022Z,2.72
2023-01-19T20:44:37.470Z,2.67
2023-01-19T20:47:41.960Z,3.17
2023-01-19T20:50:47.729Z,2.63
2023-01-19T20:53:54.321Z,3.03
2023-01-19T20:56:58.226Z,2.80
2023-01-19T21:00:03.254Z,2.80
2023-01-19T21:03:08.462Z,2.58
2023-01-19T21:06:12.549Z,3.00
2023-01-19T21:09:16.117Z,3.13
2023-01-19T21:12:21.627Z,2.80
2023-01-19T21:15:24.693Z,2.70
2023-01-19T21:18:43.975Z,3.20
2023-01-19T21:21:49.997Z,2.92
2023-01-19T21:24:53.047Z,2.63
2023-01-19T21:27:56.610Z,2.80
2023-01-19T21:31:06.693Z,2.90
2023-01-19T21:34:09.879Z,2.70
2023-01-19T21:37:12.793Z,2.72
2023-01-19T21:40:15.904Z,2.72
2023-01-19T21:43:20.138Z,2.83
2023-01-19T21:46:29.631Z,2.70
2023-01-19T21:49:32.495Z,2.55
2023-01-19T21:52:35.289Z,2.80
2023-01-19T21:55:38.708Z,2.80
2023-01-19T21:58:41.283Z,2.70
2023-01-19T22:01:45.873Z,2.60
2023-01-19T22:04:48.600Z,2.90
2023-01-19T22:07:51.617Z,2.70
2023-01-19T22:10:54.201Z,2.78
2023-01-19T22:13:59.563Z,2.78
2023-01-19T22:17:02.453Z,2.93
2023-01-19T22:20:05.609Z,2.90
2023-01-19T22:23:08.268Z,2.47
2023-01-19T22:26:12.097Z,2.60
2023-01-19T22:29:14.866Z,2.67
2023-01-19T22:32:17.611Z,2.77
2023-01-19T22:35:21.330Z,2.72
2023-01-19T22:38:24.220Z,2.88
2023-01-19T22:41:32.072Z,2.95
2023-01-19T22:44:34.735Z,2.70
2023-01-19T22:47:37.349Z,2.83
2023-01-19T22:50:40.091Z,2.75
2023-01-19T22:53:42.769Z,2.97
2023-01-19T22:56:45.949Z,2.80
2023-01-19T22:59:48.587Z,2.75
2023-01-19T23:02:51.511Z,2.90
2023-01-19T23:05:54.070Z,2.80
2023-01-19T23:08:59.278Z,3.00
2023-01-19T23:12:02.319Z,2.58
2023-01-19T23:15:05.472Z,2.97
2023-01-19T23:18:08.046Z,3.20
2023-01-19T23:21:12.540Z,2.80
2023-01-19T23:24:15.327Z,2.90
2023-01-19T23:27:17.921Z,2.65
2023-01-19T23:30:20.644Z,2.72
2023-01-19T23:33:23.573Z,2.90
2023-01-19T23:36:30.113Z,2.83
2023-01-19T23:39:32.800Z,2.67
2023-01-19T23:42:36.249Z,2.60
2023-01-19T23:45:39.071Z,3.05
2023-01-19T23:48:42.136Z,2.70
2023-01-19T23:51:44.753Z,2.47
2023-01-19T23:54:47.349Z,3.10
2023-01-19T23:57:49.910Z,2.60
